Time;durP1;ratioP1;P1;durP2;ratioP2;P2;SDS_P1;SDS_P2;PMS_P1;PMS_P2;Temp;Humidity;BMP_temperature;BMP_pressure;BME280_temperature;BME280_humidity;BME280_pressure;Samples;Min_cycle;Max_cycle;Signal;HPM_P1;HPM_P2
2022/08/09 00:01:39;;;;;;;2.10;1.90;;;17.80;99.90;;;;;;5035894;28;20194;-87
2022/08/09 00:04:05;;;;;;;3.03;1.80;;;17.80;99.90;;;;;;5036165;28;20213;-87
2022/08/09 00:06:31;;;;;;;2.33;2.13;;;17.80;99.90;;;;;;5037133;28;20182;-87
2022/08/09 00:08:57;;;;;;;2.88;2.10;;;17.80;99.90;;;;;;5040123;28;20182;-87
2022/08/09 00:11:23;;;;;;;2.50;2.30;;;17.90;99.90;;;;;;5038358;28;20202;-87
2022/08/09 00:13:49;;;;;;;2.55;2.00;;;17.90;99.90;;;;;;5040691;28;20197;-87
2022/08/09 00:16:16;;;;;;;2.13;1.83;;;17.90;99.90;;;;;;5040163;28;20217;-87
2022/08/09 00:18:43;;;;;;;2.77;2.10;;;17.90;99.90;;;;;;5035675;28;20681;-87
2022/08/09 00:21:09;;;;;;;1.80;1.70;;;17.90;99.90;;;;;;5035282;28;20198;-87
2022/08/09 00:23:36;;;;;;;6.67;2.43;;;17.90;99.90;;;;;;5035013;28;20218;-87
2022/08/09 00:26:03;;;;;;;2.10;2.00;;;17.80;99.90;;;;;;5035595;28;20185;-87
2022/08/09 00:28:29;;;;;;;5.77;2.30;;;17.70;99.90;;;;;;5035475;28;20195;-87
2022/08/09 00:30:57;;;;;;;3.77;2.37;;;17.70;99.90;;;;;;5035318;28;20198;-87
2022/08/09 00:33:23;;;;;;;2.23;2.13;;;17.60;99.90;;;;;;5035644;28;20283;-87
2022/08/09 00:35:49;;;;;;;2.53;2.33;;;17.50;99.90;;;;;;5035621;28;20209;-87
2022/08/09 00:38:15;;;;;;;3.00;2.57;;;17.40;99.90;;;;;;5035402;28;20192;-87
2022/08/09 00:40:44;;;;;;;4.50;2.07;;;17.30;99.90;;;;;;5035223;28;20241;-87
2022/08/09 00:43:10;;;;;;;2.10;1.80;;;17.30;99.90;;;;;;5035421;28;20185;-87
2022/08/09 00:45:36;;;;;;;2.37;2.20;;;17.30;99.90;;;;;;5052051;28;20186;-87
2022/08/09 00:48:04;;;;;;;2.90;2.10;;;17.20;99.90;;;;;;5035345;28;20189;-87
2022/08/09 00:50:30;;;;;;;2.00;1.90;;;17.10;99.90;;;;;;5035092;28;20194;-88
2022/08/09 00:52:56;;;;;;;3.13;2.17;;;17.00;99.90;;;;;;5035381;28;20761;-88
2022/08/09 00:55:26;;;;;;;2.33;2.13;;;16.90;99.90;;;;;;5034711;28;20705;-88
2022/08/09 00:57:52;;;;;;;2.67;2.47;;;16.80;99.90;;;;;;5034948;28;20197;-88
2022/08/09 01:00:18;;;;;;;3.47;2.10;;;16.70;99.90;;;;;;5034854;28;20224;-88
2022/08/09 01:02:52;;;;;;;2.40;2.20;;;16.70;99.90;;;;;;5034977;28;20205;-88
2022/08/09 01:05:30;;;;;;;2.83;2.07;;;16.70;99.90;;;;;;5035285;28;20170;-88
2022/08/09 01:08:01;;;;;;;2.37;2.17;;;16.60;99.90;;;;;;5034976;28;20166;-88
2022/08/09 01:10:41;;;;;;;2.53;2.33;;;16.60;99.90;;;;;;5034853;28;20182;-88
2022/08/09 01:13:17;;;;;;;2.37;2.17;;;16.60;99.90;;;;;;5035099;28;20200;-88
2022/08/09 01:15:45;;;;;;;3.00;2.10;;;16.60;99.90;;;;;;5034779;28;20290;-88
2022/08/09 01:18:22;;;;;;;2.07;1.97;;;16.60;99.90;;;;;;5034559;28;20208;-88
2022/08/09 01:21:18;;;;;;;2.30;2.10;;;16.60;99.90;;;;;;5034578;28;20164;-88
2022/08/09 01:24:01;;;;;;;2.40;2.20;;;16.50;99.90;;;;;;5034801;28;20285;-88
2022/08/09 01:26:42;;;;;;;2.00;1.90;;;16.50;99.90;;;;;;5034983;28;20265;-88
2022/08/09 01:29:11;;;;;;;2.80;2.10;;;16.40;99.90;;;;;;5034466;28;20178;-88
2022/08/09 01:31:40;;;;;;;2.50;1.97;;;16.40;99.90;;;;;;5034483;28;20205;-88
2022/08/09 01:34:09;;;;;;;2.27;2.10;;;16.40;99.90;;;;;;5034681;28;20182;-88
2022/08/09 01:36:41;;;;;;;2.77;2.00;;;16.30;99.90;;;;;;5034579;28;20218;-88
2022/08/09 01:39:07;;;;;;;2.53;2.13;;;16.30;99.90;;;;;;5035279;28;20181;-88
2022/08/09 01:41:35;;;;;;;2.60;2.40;;;16.30;99.90;;;;;;5036610;28;20229;-87
2022/08/09 01:44:04;;;;;;;2.40;2.20;;;16.20;99.90;;;;;;5034473;28;20174;-88
2022/08/09 01:46:33;;;;;;;2.60;2.30;;;16.20;99.90;;;;;;5037485;28;20184;-88
2022/08/09 01:49:03;;;;;;;3.13;2.10;;;16.20;99.90;;;;;;5038446;28;20183;-88
2022/08/09 01:51:32;;;;;;;2.73;2.00;;;16.20;99.90;;;;;;5038488;28;20208;-88
2022/08/09 01:54:01;;;;;;;2.23;2.03;;;16.20;99.90;;;;;;5055089;28;20200;-88
2022/08/09 01:56:29;;;;;;;3.00;2.47;;;16.20;99.90;;;;;;5038585;28;20205;-87
2022/08/09 01:58:57;;;;;;;3.63;2.20;;;16.20;99.90;;;;;;5038619;28;20180;-88
2022/08/09 02:01:26;;;;;;;4.63;2.10;;;16.10;99.90;;;;;;5037703;28;20343;-88
2022/08/09 02:03:55;;;;;;;2.60;2.40;;;16.00;99.90;;;;;;5038176;28;20182;-88
2022/08/09 02:09:10;;;;;;;2.50;2.30;;;16.00;99.90;;;;;;5055769;28;20614;-88
2022/08/09 02:11:36;;;;;;;3.60;2.27;;;15.90;99.90;;;;;;5056433;28;20197;-88
2022/08/09 02:14:04;;;;;;;2.63;2.00;;;16.00;99.90;;;;;;5037669;28;20189;-88
2022/08/09 02:16:34;;;;;;;2.90;2.30;;;16.00;99.90;;;;;;5037823;28;20666;-88
2022/08/09 02:19:00;;;;;;;2.30;2.10;;;15.90;99.90;;;;;;5038045;28;20264;-88
2022/08/09 02:21:30;;;;;;;2.40;2.20;;;15.90;99.90;;;;;;5037733;28;20201;-88
2022/08/09 02:23:59;;;;;;;2.37;2.13;;;16.00;99.90;;;;;;5018082;28;20248;-88
2022/08/09 02:26:28;;;;;;;2.90;2.30;;;15.90;99.90;;;;;;5017996;28;20186;-87
2022/08/09 02:29:02;;;;;;;2.53;2.33;;;15.90;99.90;;;;;;5017858;28;20186;-88
2022/08/09 02:31:35;;;;;;;2.67;2.47;;;15.90;99.90;;;;;;5017517;28;20573;-88
2022/08/09 02:34:17;;;;;;;5.00;2.50;;;15.90;99.90;;;;;;5017674;28;20260;-87
2022/08/09 02:36:47;;;;;;;4.00;2.23;;;15.90;99.90;;;;;;5018204;28;20175;-87
2022/08/09 02:39:20;;;;;;;2.93;2.47;;;15.80;99.90;;;;;;5018327;28;20254;-88
2022/08/09 02:42:04;;;;;;;3.10;2.80;;;15.80;99.90;;;;;;5026760;28;20203;-87
2022/08/09 02:45:00;;;;;;;3.20;2.20;;;15.80;99.90;;;;;;5034150;28;20171;-88
2022/08/09 02:47:29;;;;;;;3.30;2.20;;;15.70;99.90;;;;;;5033483;28;20189;-88
2022/08/09 02:50:04;;;;;;;3.00;2.17;;;15.70;99.90;;;;;;5033097;28;20673;-89
2022/08/09 02:52:45;;;;;;;3.83;2.40;;;15.70;99.90;;;;;;5037401;28;20208;-87
2022/08/09 02:55:13;;;;;;;3.00;2.20;;;15.70;99.90;;;;;;5037342;28;20194;-88
2022/08/09 02:57:40;;;;;;;3.90;2.50;;;15.70;99.90;;;;;;5036079;28;20213;-87
2022/08/09 03:00:10;;;;;;;2.80;2.47;;;15.70;99.90;;;;;;5036687;28;20185;-87
2022/08/09 03:02:45;;;;;;;4.27;2.30;;;15.60;99.90;;;;;;5037486;28;20283;-88
2022/08/09 03:05:12;;;;;;;2.97;2.30;;;15.50;99.90;;;;;;5037333;28;20223;-87
2022/08/09 03:07:39;;;;;;;2.70;2.50;;;15.40;99.90;;;;;;5037060;28;20236;-87
2022/08/09 03:10:06;;;;;;;3.57;2.50;;;15.20;99.90;;;;;;5053105;28;20189;-87
2022/08/09 03:12:35;;;;;;;3.93;2.50;;;15.10;99.90;;;;;;5036142;28;20280;-87
2022/08/09 03:15:04;;;;;;;3.57;2.50;;;15.10;99.90;;;;;;5036661;28;20265;-87
2022/08/09 03:17:39;;;;;;;2.60;2.40;;;15.00;99.90;;;;;;5053408;28;20181;-87
2022/08/09 03:20:07;;;;;;;3.63;2.50;;;15.00;99.90;;;;;;5036488;28;20182;-88
2022/08/09 03:22:39;;;;;;;2.93;2.50;;;15.10;99.90;;;;;;5053738;28;20213;-87
2022/08/09 03:25:07;;;;;;;2.80;2.60;;;15.10;99.90;;;;;;5036478;28;20207;-87
2022/08/09 03:27:34;;;;;;;3.10;2.57;;;15.10;99.90;;;;;;5036621;28;20178;-87
2022/08/09 03:30:01;;;;;;;4.67;2.70;;;15.20;99.90;;;;;;5036280;28;20185;-88
2022/08/09 03:32:32;;;;;;;3.40;2.63;;;15.20;99.90;;;;;;5036454;28;20193;-87
2022/08/09 03:34:59;;;;;;;2.90;2.60;;;15.20;99.90;;;;;;5036264;28;20288;-87
2022/08/09 03:37:26;;;;;;;4.27;2.70;;;15.20;99.90;;;;;;5036421;28;20232;-87
2022/08/09 03:39:52;;;;;;;3.00;2.50;;;15.20;99.90;;;;;;5037527;28;20178;-88
2022/08/09 03:42:18;;;;;;;3.83;2.30;;;15.20;99.90;;;;;;5054827;28;20243;-87
2022/08/09 03:44:55;;;;;;;2.97;2.60;;;15.10;99.90;;;;;;5052684;28;20193;-87
2022/08/09 03:47:20;;;;;;;2.80;2.60;;;15.00;99.90;;;;;;5052782;28;20185;-87
2022/08/09 03:49:49;;;;;;;3.17;2.63;;;14.90;99.90;;;;;;5052579;28;20177;-88
2022/08/09 03:52:18;;;;;;;3.10;2.40;;;14.90;99.90;;;;;;5035923;28;20264;-87
2022/08/09 03:54:47;;;;;;;3.17;2.70;;;14.80;99.90;;;;;;5036019;28;20237;-87
2022/08/09 03:57:14;;;;;;;2.87;2.27;;;14.70;99.90;;;;;;5052640;28;20593;-87
2022/08/09 03:59:43;;;;;;;6.60;2.90;;;14.60;99.90;;;;;;5036004;28;20170;-88
2022/08/09 04:02:15;;;;;;;4.03;2.50;;;14.60;99.90;;;;;;5035309;28;20197;-87
2022/08/09 04:04:41;;;;;;;4.33;3.07;;;14.50;99.90;;;;;;5036262;28;20203;-87
2022/08/09 04:07:06;;;;;;;2.70;2.50;;;14.50;99.90;;;;;;5035661;28;20213;-87
2022/08/09 04:09:33;;;;;;;3.20;2.90;;;14.40;99.90;;;;;;5036284;28;20268;-87
2022/08/09 04:12:08;;;;;;;2.93;2.60;;;14.30;99.90;;;;;;5054243;28;20235;-87
2022/08/09 04:14:34;;;;;;;4.73;2.60;;;14.30;99.90;;;;;;5035860;28;20188;-87
2022/08/09 04:17:00;;;;;;;2.50;2.30;;;14.30;99.90;;;;;;5035778;28;20184;-88
2022/08/09 04:19:26;;;;;;;2.90;2.70;;;14.30;99.90;;;;;;5052261;28;20268;-88
2022/08/09 04:21:52;;;;;;;5.23;2.90;;;14.30;99.90;;;;;;5051839;28;20198;-88
2022/08/09 04:24:19;;;;;;;2.87;2.63;;;14.30;99.90;;;;;;5035453;28;20202;-87
2022/08/09 04:26:44;;;;;;;2.70;2.50;;;14.30;99.90;;;;;;5035832;28;20278;-88
2022/08/09 04:29:10;;;;;;;4.67;2.90;;;14.30;99.90;;;;;;5035443;28;20641;-88
2022/08/09 04:31:37;;;;;;;3.20;2.97;;;14.30;99.90;;;;;;5035122;28;20254;-88
2022/08/09 04:34:03;;;;;;;4.07;2.90;;;14.30;99.90;;;;;;5035152;28;20279;-88
2022/08/09 04:36:31;;;;;;;3.00;2.70;;;14.20;99.90;;;;;;5051910;28;20253;-88
2022/08/09 04:38:59;;;;;;;4.07;3.10;;;14.20;99.90;;;;;;5035219;28;20178;-88
2022/08/09 04:41:26;;;;;;;3.33;3.00;;;14.20;99.90;;;;;;5034991;28;20199;-88
2022/08/09 04:43:53;;;;;;;3.17;2.87;;;14.20;99.90;;;;;;5035212;28;20182;-88
2022/08/09 04:46:20;;;;;;;4.47;3.20;;;14.20;99.90;;;;;;5035089;28;20190;-88
2022/08/09 04:48:47;;;;;;;4.40;3.13;;;14.20;99.90;;;;;;5018896;28;20194;-87
2022/08/09 04:51:13;;;;;;;3.67;3.13;;;14.20;99.90;;;;;;5051253;28;20213;-87
2022/08/09 04:53:39;;;;;;;4.50;3.37;;;14.30;99.90;;;;;;5034825;28;20267;-88
2022/08/09 04:56:05;;;;;;;3.90;2.90;;;14.40;99.90;;;;;;5034995;28;20292;-87
2022/08/09 04:58:32;;;;;;;3.30;3.00;;;14.40;99.90;;;;;;5034967;28;20178;-88
2022/08/09 05:01:01;;;;;;;4.33;3.10;;;14.50;99.90;;;;;;5050815;28;20233;-88
2022/08/09 05:03:27;;;;;;;4.17;3.13;;;14.60;99.90;;;;;;5051768;28;20177;-88
2022/08/09 05:05:53;;;;;;;3.30;2.83;;;14.70;99.90;;;;;;5034617;28;20182;-88
2022/08/09 05:08:19;;;;;;;3.37;3.10;;;14.80;99.90;;;;;;5034943;28;20170;-88
2022/08/09 05:10:45;;;;;;;3.50;3.20;;;14.80;99.90;;;;;;5034911;28;20192;-88
2022/08/09 05:13:12;;;;;;;3.23;2.97;;;14.90;99.90;;;;;;5034759;28;20212;-88
2022/08/09 05:15:38;;;;;;;2.93;2.73;;;14.90;99.90;;;;;;5034590;28;20262;-88
2022/08/09 05:18:04;;;;;;;5.37;3.10;;;15.00;99.90;;;;;;5034816;28;20188;-88
2022/08/09 05:20:29;;;;;;;4.47;3.13;;;15.10;99.90;;;;;;5029698;28;20185;-88
2022/08/09 05:22:59;;;;;;;4.90;2.90;;;15.10;99.90;;;;;;5033456;28;20203;-89
2022/08/09 05:25:31;;;;;;;3.30;2.93;;;15.10;99.90;;;;;;5015021;28;20190;-88
2022/08/09 05:27:57;;;;;;;3.30;2.83;;;15.20;99.90;;;;;;5015072;28;20174;-90
2022/08/09 05:30:23;;;;;;;3.70;2.93;;;15.30;99.90;;;;;;5034333;28;20278;-89
2022/08/09 05:32:53;;;;;;;3.47;2.93;;;15.40;99.90;;;;;;5021921;28;20418;-89
2022/08/09 05:35:20;;;;;;;5.23;3.10;;;15.40;99.90;;;;;;5027380;28;20197;-90
2022/08/09 05:37:49;;;;;;;3.77;3.10;;;15.50;99.90;;;;;;5029257;28;20182;-89
2022/08/09 05:40:17;;;;;;;3.30;3.00;;;15.60;99.90;;;;;;5027407;28;20206;-88
2022/08/09 05:42:43;;;;;;;6.23;3.40;;;15.70;99.90;;;;;;5037257;28;20194;-88
2022/08/09 05:45:10;;;;;;;3.63;3.33;;;15.70;99.90;;;;;;5028217;28;20182;-87
2022/08/09 05:47:36;;;;;;;3.97;3.10;;;15.80;99.90;;;;;;5014530;28;20182;-88
2022/08/09 05:50:02;;;;;;;5.27;3.23;;;15.90;99.90;;;;;;5030740;28;20183;-88
2022/08/09 05:52:28;;;;;;;3.10;2.80;;;16.00;99.90;;;;;;5024052;28;20213;-88
2022/08/09 05:54:55;;;;;;;3.00;2.77;;;16.10;99.90;;;;;;5051065;28;20307;-88
2022/08/09 05:57:21;;;;;;;5.50;3.27;;;16.20;99.90;;;;;;5022441;28;20178;-88
2022/08/09 05:59:47;;;;;;;3.00;2.70;;;16.40;99.90;;;;;;5030341;28;20182;-88
2022/08/09 06:02:15;;;;;;;3.67;3.37;;;16.50;99.90;;;;;;5030363;28;20195;-87
2022/08/09 06:04:42;;;;;;;6.33;3.10;;;16.50;99.90;;;;;;5028339;28;20174;-87
2022/08/09 06:07:11;;;;;;;3.63;3.33;;;16.70;99.90;;;;;;5046402;28;20193;-85
2022/08/09 06:09:38;;;;;;;4.60;3.50;;;16.80;99.90;;;;;;5034795;28;20175;-85
2022/08/09 06:12:05;;;;;;;3.57;3.20;;;16.90;99.90;;;;;;5031506;28;20195;-85
2022/08/09 06:14:33;;;;;;;4.60;3.17;;;17.00;99.90;;;;;;5029524;28;20654;-85
2022/08/09 06:16:59;;;;;;;3.90;3.23;;;17.10;99.90;;;;;;5028469;28;20202;-85
2022/08/09 06:19:25;;;;;;;4.27;3.37;;;17.20;99.90;;;;;;5034513;28;20198;-87
2022/08/09 06:21:51;;;;;;;3.63;3.23;;;17.30;99.90;;;;;;5021845;28;20200;-87
2022/08/09 06:24:18;;;;;;;3.57;3.20;;;17.40;99.90;;;;;;5051041;28;20189;-88
2022/08/09 06:26:44;;;;;;;4.37;3.37;;;17.60;99.90;;;;;;5050964;28;20185;-86
2022/08/09 06:29:10;;;;;;;3.60;3.30;;;17.70;99.90;;;;;;5034381;28;20177;-86
2022/08/09 06:31:36;;;;;;;4.30;3.20;;;17.80;99.90;;;;;;5035723;28;20275;-88
2022/08/09 06:34:07;;;;;;;4.20;3.27;;;17.90;99.90;;;;;;5034532;28;20182;-89
2022/08/09 06:36:34;;;;;;;4.27;3.13;;;18.00;99.90;;;;;;5032789;28;20211;-89
2022/08/09 06:39:00;;;;;;;3.17;2.87;;;18.20;99.90;;;;;;5034487;28;20188;-88
2022/08/09 06:41:26;;;;;;;4.53;3.50;;;18.30;99.90;;;;;;5053907;28;20300;-89
2022/08/09 06:43:53;;;;;;;4.30;3.08;;;18.50;99.90;;;;;;5051345;28;20205;-89
2022/08/09 06:46:19;;;;;;;4.72;3.25;;;18.60;99.90;;;;;;5030148;28;20631;-89
2022/08/09 06:48:48;;;;;;;3.22;3.00;;;18.80;99.90;;;;;;5032970;28;20191;-89
2022/08/09 06:51:19;;;;;;;3.77;3.27;;;18.90;99.90;;;;;;5035179;28;20205;-89
2022/08/09 06:53:49;;;;;;;3.15;2.88;;;19.10;99.90;;;;;;5037050;28;20212;-89
2022/08/09 06:56:16;;;;;;;3.67;2.92;;;19.20;99.90;;;;;;5049014;28;20214;-89
2022/08/09 06:58:43;;;;;;;3.55;3.03;;;19.30;99.90;;;;;;5039225;28;20177;-90
2022/08/09 07:01:09;;;;;;;5.40;3.25;;;19.50;99.90;;;;;;5033121;28;20279;-90
2022/08/09 07:03:35;;;;;;;5.97;3.42;;;19.60;99.90;;;;;;5023539;28;20186;-89
2022/08/09 07:06:05;;;;;;;4.57;3.20;;;19.70;99.90;;;;;;5044073;28;20214;-90
2022/08/09 07:08:34;;;;;;;3.22;3.00;;;19.70;99.90;;;;;;5034418;28;20195;-90
2022/08/09 07:11:10;;;;;;;3.13;2.85;;;19.80;99.90;;;;;;5035159;28;20294;-90
2022/08/09 07:13:36;;;;;;;3.08;2.85;;;19.90;99.90;;;;;;5052963;28;20373;-90
2022/08/09 07:16:08;;;;;;;3.42;3.10;;;20.00;99.90;;;;;;5053056;28;20301;-90
2022/08/09 07:19:04;;;;;;;4.07;3.05;;;20.10;99.90;;;;;;5053602;28;20158;-90
2022/08/09 07:21:44;;;;;;;3.28;2.80;;;20.20;99.90;;;;;;5051841;28;20206;-90
2022/08/09 07:24:10;;;;;;;4.30;3.10;;;20.40;99.90;;;;;;5036798;28;20237;-90
2022/08/09 07:26:36;;;;;;;4.85;2.80;;;20.60;99.90;;;;;;5037194;28;20232;-89
2022/08/09 07:29:04;;;;;;;3.10;2.70;;;20.80;99.90;;;;;;5036803;28;20182;-90
2022/08/09 07:31:32;;;;;;;5.82;3.30;;;20.80;99.90;;;;;;5053529;28;20208;-88
2022/08/09 07:33:58;;;;;;;4.07;2.78;;;21.00;99.90;;;;;;5036697;28;20177;-88
2022/08/09 07:36:24;;;;;;;2.85;2.65;;;21.10;99.90;;;;;;5037834;28;20263;-88
2022/08/09 07:38:51;;;;;;;3.53;2.88;;;21.30;99.90;;;;;;5048998;28;20193;-89
2022/08/09 07:41:18;;;;;;;2.85;2.55;;;21.50;99.90;;;;;;5062159;28;20206;-89
2022/08/09 07:43:45;;;;;;;2.83;2.63;;;21.60;99.90;;;;;;5052915;28;20235;-89
2022/08/09 07:46:11;;;;;;;3.45;2.53;;;21.80;99.90;;;;;;5055155;28;20170;-88
2022/08/09 07:48:37;;;;;;;4.40;2.78;;;21.90;99.90;;;;;;5030105;28;20178;-89
2022/08/09 07:51:03;;;;;;;3.47;2.75;;;22.00;99.90;;;;;;5024969;28;20232;-89
2022/08/09 07:53:31;;;;;;;27.88;22.52;;;22.20;99.90;;;;;;5018095;28;20254;-89
2022/08/09 07:56:08;;;;;;;103.88;93.93;;;22.30;99.90;;;;;;5017848;28;20215;-81
2022/08/09 07:58:37;;;;;;;45.30;40.97;;;22.50;99.90;;;;;;5033234;28;20166;-90
2022/08/09 08:01:09;;;;;;;5.32;4.65;;;22.70;99.90;;;;;;5055585;28;20193;-89
2022/08/09 08:03:39;;;;;;;3.20;2.63;;;22.80;99.90;;;;;;5034480;28;20324;-89
2022/08/09 08:06:10;;;;;;;4.25;2.78;;;23.00;99.90;;;;;;5039166;28;20182;-89
2022/08/09 08:08:55;;;;;;;2.65;2.45;;;23.10;99.90;;;;;;5052495;28;20166;-88
2022/08/09 08:11:22;;;;;;;4.35;2.70;;;23.40;99.90;;;;;;5042067;28;20252;-88
2022/08/09 08:13:48;;;;;;;2.58;2.38;;;23.50;99.90;;;;;;5043913;28;20198;-88
2022/08/09 08:16:15;;;;;;;3.80;2.28;;;23.60;99.90;;;;;;5043128;28;20232;-88
2022/08/09 08:18:41;;;;;;;2.55;2.35;;;23.90;99.90;;;;;;5029950;28;20166;-88
2022/08/09 08:21:07;;;;;;;2.25;2.10;;;24.00;99.90;;;;;;5034810;28;20193;-88
2022/08/09 08:23:35;;;;;;;2.40;2.20;;;24.30;99.90;;;;;;5028789;28;20212;-88
2022/08/09 08:26:01;;;;;;;3.55;2.20;;;24.50;99.50;;;;;;5043470;28;20215;-89
2022/08/09 08:28:28;;;;;;;3.22;2.33;;;24.70;98.40;;;;;;5051570;28;20215;-88
2022/08/09 08:30:54;;;;;;;2.80;2.22;;;24.80;98.40;;;;;;5035188;28;20189;-88
2022/08/09 08:33:21;;;;;;;2.72;2.03;;;24.90;98.90;;;;;;5046558;28;20200;-89
2022/08/09 08:35:47;;;;;;;2.78;2.05;;;25.10;98.10;;;;;;5049639;28;20256;-88
2022/08/09 08:38:21;;;;;;;2.75;2.03;;;25.30;97.30;;;;;;5037113;28;20175;-88
2022/08/09 08:40:52;;;;;;;3.10;2.08;;;25.40;96.40;;;;;;5045688;28;20197;-89
2022/08/09 08:43:23;;;;;;;5.20;2.10;;;25.70;96.00;;;;;;5045541;28;20327;-88
2022/08/09 08:45:59;;;;;;;2.50;2.30;;;25.80;96.30;;;;;;5051538;28;20181;-88
2022/08/09 08:48:25;;;;;;;2.17;2.00;;;26.00;95.50;;;;;;5034032;28;20181;-89
2022/08/09 08:50:52;;;;;;;2.00;1.80;;;26.20;94.90;;;;;;5035228;28;20189;-88
2022/08/09 08:53:19;;;;;;;3.00;2.13;;;26.40;95.20;;;;;;5051866;28;20182;-89
2022/08/09 08:55:45;;;;;;;3.10;2.13;;;26.60;94.70;;;;;;5020704;28;20198;-88
2022/08/09 08:58:11;;;;;;;2.38;2.17;;;26.70;93.90;;;;;;5015457;28;20178;-89
2022/08/09 09:00:38;;;;;;;2.30;2.10;;;26.90;94.20;;;;;;5016965;28;20174;-88
2022/08/09 09:03:04;;;;;;;2.33;2.13;;;27.00;94.00;;;;;;5035775;28;20174;-88
2022/08/09 09:05:31;;;;;;;4.50;2.45;;;27.20;93.50;;;;;;5016491;28;20179;-88
2022/08/09 09:07:58;;;;;;;2.17;1.98;;;27.30;93.00;;;;;;5051307;28;20265;-88
2022/08/09 09:10:27;;;;;;;2.10;1.90;;;27.30;93.00;;;;;;5041322;28;20179;-90
2022/08/09 09:12:54;;;;;;;2.30;2.10;;;27.60;92.70;;;;;;5035365;28;20209;-92
2022/08/09 09:15:20;;;;;;;4.65;2.20;;;27.70;92.20;;;;;;5035546;28;20206;-90
2022/08/09 09:17:47;;;;;;;2.75;1.95;;;27.80;91.40;;;;;;5051579;28;20178;-89
2022/08/09 09:20:14;;;;;;;2.40;2.08;;;28.10;91.30;;;;;;5042739;28;20166;-88
2022/08/09 09:22:58;;;;;;;3.58;2.20;;;28.20;90.30;;;;;;5018721;28;20187;-87
2022/08/09 09:25:32;;;;;;;3.25;2.20;;;28.30;90.70;;;;;;5030777;28;20198;-89
2022/08/09 09:27:58;;;;;;;3.67;2.17;;;28.40;90.60;;;;;;5048120;28;20182;-88
2022/08/09 09:30:24;;;;;;;2.28;2.08;;;28.40;90.40;;;;;;5047924;28;20190;-88
2022/08/09 09:33:01;;;;;;;1.92;1.80;;;28.40;90.00;;;;;;5047756;28;20221;-88
2022/08/09 09:35:29;;;;;;;2.75;2.20;;;28.50;89.00;;;;;;5025273;28;20202;-89
2022/08/09 09:37:55;;;;;;;1.98;1.88;;;28.60;87.90;;;;;;5031619;28;20174;-89
2022/08/09 09:40:39;;;;;;;3.33;2.17;;;28.60;86.60;;;;;;5014807;28;20179;-88
2022/08/09 09:43:05;;;;;;;3.55;2.22;;;28.60;87.40;;;;;;5014734;28;20174;-88
2022/08/09 09:45:51;;;;;;;1.95;1.77;;;28.60;87.20;;;;;;5015255;28;20210;-88
2022/08/09 09:48:19;;;;;;;3.05;2.05;;;28.70;87.60;;;;;;5028238;28;20187;-89
2022/08/09 09:50:49;;;;;;;2.63;1.95;;;28.90;87.10;;;;;;5031255;28;20254;-89
2022/08/09 09:53:22;;;;;;;2.92;1.83;;;29.00;87.10;;;;;;5029152;28;20189;-89
2022/08/09 09:55:53;;;;;;;3.35;2.10;;;29.00;87.80;;;;;;5028432;28;20205;-89
2022/08/09 09:58:20;;;;;;;2.53;1.88;;;29.20;87.40;;;;;;5024558;28;20178;-89
2022/08/09 10:00:54;;;;;;;2.38;1.92;;;29.30;87.00;;;;;;5034343;28;20185;-89
2022/08/09 10:03:44;;;;;;;3.40;1.98;;;29.50;86.50;;;;;;5040494;28;20281;-89
2022/08/09 10:06:11;;;;;;;2.40;1.92;;;29.60;86.20;;;;;;5035637;28;20186;-89
2022/08/09 10:08:39;;;;;;;2.17;1.70;;;29.70;84.00;;;;;;5054657;28;20182;-89
2022/08/09 10:11:18;;;;;;;2.20;1.83;;;29.40;82.50;;;;;;5046131;28;20198;-88
2022/08/09 10:13:44;;;;;;;3.50;2.30;;;29.50;84.40;;;;;;5035271;28;20265;-89
2022/08/09 10:16:11;;;;;;;2.67;1.80;;;29.70;82.60;;;;;;5030696;28;20197;-88
2022/08/09 10:18:37;;;;;;;4.57;2.10;;;29.60;80.70;;;;;;5055451;28;20218;-89
2022/08/09 10:21:10;;;;;;;3.55;1.80;;;29.60;81.40;;;;;;5034642;28;20190;-89
2022/08/09 10:23:36;;;;;;;2.25;1.75;;;29.70;81.10;;;;;;5037872;28;20351;-88
2022/08/09 10:26:03;;;;;;;3.00;1.67;;;29.70;80.60;;;;;;5038286;28;20201;-89
2022/08/09 10:28:32;;;;;;;3.30;1.80;;;29.70;78.70;;;;;;5038435;28;20208;-88
2022/08/09 10:30:59;;;;;;;2.25;1.77;;;29.70;79.60;;;;;;5037849;28;20202;-88
2022/08/09 10:33:26;;;;;;;2.20;2.03;;;29.90;79.90;;;;;;5038166;28;20182;-89
2022/08/09 10:35:53;;;;;;;2.65;1.98;;;29.80;79.50;;;;;;5037860;28;20206;-89
2022/08/09 10:38:20;;;;;;;1.83;1.73;;;29.70;78.90;;;;;;5026847;28;20198;-89
2022/08/09 10:40:46;;;;;;;2.35;1.63;;;29.80;77.70;;;;;;5034141;28;20189;-89
2022/08/09 10:43:14;;;;;;;2.42;1.80;;;29.80;77.60;;;;;;5034829;28;20190;-89
2022/08/09 10:45:43;;;;;;;1.80;1.70;;;29.80;78.00;;;;;;5034679;28;20191;-89
2022/08/09 10:48:23;;;;;;;5.07;1.90;;;29.90;78.10;;;;;;5034569;28;20187;-88
2022/08/09 10:51:08;;;;;;;2.30;2.00;;;30.10;77.50;;;;;;5034104;28;20175;-89
2022/08/09 10:53:42;;;;;;;2.22;1.50;;;30.10;76.60;;;;;;5051440;28;20210;-89
2022/08/09 10:56:23;;;;;;;2.63;2.00;;;30.10;76.20;;;;;;5037968;28;20275;-89
2022/08/09 10:58:51;;;;;;;2.35;1.75;;;30.10;76.40;;;;;;5037655;28;20173;-89
2022/08/09 11:01:34;;;;;;;1.92;1.80;;;30.20;77.20;;;;;;5054795;28;20205;-88
2022/08/09 11:04:10;;;;;;;3.15;1.90;;;30.30;77.10;;;;;;5055014;28;20182;-89
2022/08/09 11:06:38;;;;;;;2.33;1.80;;;30.40;77.80;;;;;;5037684;28;20216;-89
2022/08/09 11:09:06;;;;;;;4.60;1.70;;;30.40;76.30;;;;;;5037976;28;20193;-89
2022/08/09 11:11:56;;;;;;;2.20;1.80;;;30.40;76.20;;;;;;5037399;28;20197;-89
2022/08/09 11:14:36;;;;;;;1.90;1.77;;;30.50;77.10;;;;;;5054238;28;20268;-90
2022/08/09 11:17:25;;;;;;;3.92;1.75;;;30.70;76.90;;;;;;5053299;28;20251;-89
2022/08/09 11:19:55;;;;;;;1.70;1.60;;;30.80;74.70;;;;;;5033228;28;20190;-90
2022/08/09 11:22:42;;;;;;;2.03;1.80;;;31.00;74.70;;;;;;5029516;28;20260;-90
2022/08/09 11:25:19;;;;;;;1.92;1.73;;;31.10;76.20;;;;;;5006362;28;20217;-90
2022/08/09 11:27:51;;;;;;;2.38;1.60;;;31.30;74.50;;;;;;5016530;28;20167;-90
2022/08/09 11:30:23;;;;;;;7.22;2.47;;;31.30;76.00;;;;;;5016732;28;20182;-90
2022/08/09 11:33:17;;;;;;;5.57;2.03;;;31.30;75.70;;;;;;5016875;28;20238;-90
2022/08/09 11:35:54;;;;;;;2.65;1.92;;;31.30;75.50;;;;;;5033342;28;20203;-90
2022/08/09 11:38:58;;;;;;;5.78;2.00;;;31.30;75.50;;;;;;5016833;28;20170;-90
2022/08/09 11:41:30;;;;;;;1.65;1.55;;;31.30;74.70;;;;;;5016517;28;20209;-90
2022/08/09 11:43:56;;;;;;;2.75;1.60;;;31.40;74.00;;;;;;5016681;28;20174;-89
2022/08/09 11:46:23;;;;;;;2.45;1.90;;;31.40;74.50;;;;;;5016814;28;20178;-90
2022/08/09 11:48:54;;;;;;;3.17;1.85;;;31.40;74.30;;;;;;5016758;28;20182;-90
2022/08/09 11:51:23;;;;;;;2.67;1.50;;;31.60;74.50;;;;;;5016199;28;20199;-87
2022/08/09 11:54:14;;;;;;;4.10;1.70;;;31.60;75.20;;;;;;5032495;28;20194;-87
2022/08/09 11:56:40;;;;;;;3.10;1.80;;;31.40;74.10;;;;;;5016679;28;20224;-87
2022/08/09 11:59:44;;;;;;;1.63;1.52;;;31.50;75.30;;;;;;5051524;28;20261;-87
2022/08/09 12:02:12;;;;;;;1.40;1.30;;;31.80;73.80;;;;;;5039269;28;20229;-89
2022/08/09 12:04:38;;;;;;;2.10;1.55;;;31.80;72.40;;;;;;5029861;28;20174;-89
2022/08/09 12:07:06;;;;;;;2.05;1.92;;;31.60;72.00;;;;;;5022803;28;20186;-89
2022/08/09 12:09:36;;;;;;;3.90;1.80;;;31.80;72.70;;;;;;5053250;28;20186;-89
2022/08/09 12:12:09;;;;;;;2.53;1.85;;;31.70;73.00;;;;;;5035983;28;20228;-88
2022/08/09 12:14:36;;;;;;;2.55;2.08;;;31.80;72.40;;;;;;5038034;28;20184;-88
2022/08/09 12:17:06;;;;;;;3.10;1.58;;;32.00;72.90;;;;;;5018098;28;20202;-88
2022/08/09 12:19:34;;;;;;;2.17;1.60;;;31.90;71.30;;;;;;5016600;28;20269;-89
2022/08/09 12:22:06;;;;;;;1.95;1.75;;;32.00;71.90;;;;;;5017101;28;20194;-89
2022/08/09 12:24:36;;;;;;;1.88;1.73;;;32.20;71.30;;;;;;5035295;28;20209;-90
2022/08/09 12:27:19;;;;;;;1.95;1.83;;;32.30;69.80;;;;;;5042672;28;20195;-88
2022/08/09 12:29:54;;;;;;;4.15;2.10;;;32.50;70.80;;;;;;5016108;28;20190;-89
2022/08/09 12:32:26;;;;;;;3.38;1.90;;;32.60;70.40;;;;;;5032708;28;20194;-88
2022/08/09 12:35:03;;;;;;;2.47;1.90;;;32.60;70.90;;;;;;5016469;28;20163;-88
2022/08/09 12:37:40;;;;;;;2.75;1.90;;;32.70;70.80;;;;;;5032894;28;20186;-89
2022/08/09 12:40:10;;;;;;;3.28;2.00;;;32.80;69.80;;;;;;5016772;28;20217;-89
2022/08/09 12:42:43;;;;;;;2.58;1.70;;;32.50;70.50;;;;;;5016357;28;20209;-88
2022/08/09 12:45:10;;;;;;;3.92;1.88;;;32.60;69.40;;;;;;5032692;28;20320;-89
2022/08/09 12:47:40;;;;;;;3.25;1.80;;;32.50;70.00;;;;;;5033643;28;20175;-89
2022/08/09 12:50:16;;;;;;;2.78;1.60;;;32.60;70.20;;;;;;5032314;28;20182;-89
2022/08/09 12:52:51;;;;;;;2.00;1.48;;;32.50;69.10;;;;;;5032574;28;20233;-89
2022/08/09 12:55:29;;;;;;;5.28;1.65;;;32.70;67.10;;;;;;5017282;28;20215;-89
2022/08/09 12:57:57;;;;;;;2.13;1.60;;;32.70;66.30;;;;;;5017025;28;20193;-89
2022/08/09 13:00:33;;;;;;;2.05;1.70;;;32.80;66.20;;;;;;5032311;28;20308;-89
2022/08/09 13:03:03;;;;;;;2.42;1.98;;;32.80;66.30;;;;;;5032231;28;20255;-89